sensor_id;sensor_type;location;lat;lon;timestamp;P1;durP1;ratioP1;P2;durP2;ratioP2
19951;SDS011;10137;49.406;19.484;2023-04-15T00:01:33;2.43;;;1.53;;
19951;SDS011;10137;49.406;19.484;2023-04-15T00:04:01;1.70;;;1.20;;
19951;SDS011;10137;49.406;19.484;2023-04-15T00:06:29;2.20;;;0.80;;
19951;SDS011;10137;49.406;19.484;2023-04-15T00:08:58;1.40;;;1.20;;
19951;SDS011;10137;49.406;19.484;2023-04-15T00:11:26;1.27;;;1.00;;
19951;SDS011;10137;49.406;19.484;2023-04-15T00:13:54;3.57;;;1.30;;
19951;SDS011;10137;49.406;19.484;2023-04-15T00:16:22;0.80;;;0.80;;
19951;SDS011;10137;49.406;19.484;2023-04-15T00:18:51;1.97;;;1.73;;
19951;SDS011;10137;49.406;19.484;2023-04-15T00:21:19;1.10;;;1.00;;
19951;SDS011;10137;49.406;19.484;2023-04-15T00:23:47;2.80;;;1.40;;
19951;SDS011;10137;49.406;19.484;2023-04-15T00:26:19;3.87;;;1.70;;
19951;SDS011;10137;49.406;19.484;2023-04-15T00:28:47;1.37;;;0.93;;
19951;SDS011;10137;49.406;19.484;2023-04-15T00:31:15;2.97;;;2.20;;
19951;SDS011;10137;49.406;19.484;2023-04-15T00:33:45;2.20;;;1.60;;
19951;SDS011;10137;49.406;19.484;2023-04-15T00:36:13;4.03;;;2.07;;
19951;SDS011;10137;49.406;19.484;2023-04-15T00:38:41;1.87;;;1.20;;
19951;SDS011;10137;49.406;19.484;2023-04-15T00:41:09;2.90;;;1.60;;
19951;SDS011;10137;49.406;19.484;2023-04-15T00:43:38;1.40;;;1.30;;
19951;SDS011;10137;49.406;19.484;2023-04-15T00:46:06;1.80;;;1.30;;
19951;SDS011;10137;49.406;19.484;2023-04-15T00:48:36;2.27;;;1.30;;
19951;SDS011;10137;49.406;19.484;2023-04-15T00:51:06;1.30;;;1.10;;
19951;SDS011;10137;49.406;19.484;2023-04-15T00:53:34;1.10;;;0.93;;
19951;SDS011;10137;49.406;19.484;2023-04-15T00:56:02;3.10;;;1.50;;
19951;SDS011;10137;49.406;19.484;2023-04-15T00:58:30;1.83;;;1.10;;
19951;SDS011;10137;49.406;19.484;2023-04-15T01:00:58;2.07;;;1.20;;
19951;SDS011;10137;49.406;19.484;2023-04-15T01:03:27;1.73;;;1.30;;
19951;SDS011;10137;49.406;19.484;2023-04-15T01:05:56;2.20;;;1.30;;
19951;SDS011;10137;49.406;19.484;2023-04-15T01:08:27;2.37;;;1.30;;
19951;SDS011;10137;49.406;19.484;2023-04-15T01:10:56;1.27;;;0.80;;
19951;SDS011;10137;49.406;19.484;2023-04-15T01:13:28;1.33;;;1.17;;
19951;SDS011;10137;49.406;19.484;2023-04-15T01:15:56;1.53;;;1.00;;
19951;SDS011;10137;49.406;19.484;2023-04-15T01:18:23;5.00;;;1.10;;
19951;SDS011;10137;49.406;19.484;2023-04-15T01:20:52;1.63;;;1.20;;
19951;SDS011;10137;49.406;19.484;2023-04-15T01:23:21;1.47;;;0.97;;
19951;SDS011;10137;49.406;19.484;2023-04-15T01:25:49;1.97;;;1.30;;
19951;SDS011;10137;49.406;19.484;2023-04-15T01:28:21;1.00;;;0.90;;
19951;SDS011;10137;49.406;19.484;2023-04-15T01:30:48;1.87;;;1.10;;
19951;SDS011;10137;49.406;19.484;2023-04-15T01:33:15;1.20;;;0.90;;
19951;SDS011;10137;49.406;19.484;2023-04-15T01:35:43;1.30;;;1.10;;
19951;SDS011;10137;49.406;19.484;2023-04-15T01:38:12;5.30;;;1.30;;
19951;SDS011;10137;49.406;19.484;2023-04-15T01:40:41;2.13;;;1.07;;
19951;SDS011;10137;49.406;19.484;2023-04-15T01:43:10;3.83;;;1.00;;
19951;SDS011;10137;49.406;19.484;2023-04-15T01:45:39;2.80;;;1.13;;
19951;SDS011;10137;49.406;19.484;2023-04-15T01:48:07;0.93;;;0.90;;
19951;SDS011;10137;49.406;19.484;2023-04-15T01:50:36;0.87;;;0.87;;
19951;SDS011;10137;49.406;19.484;2023-04-15T01:53:04;3.57;;;1.03;;
19951;SDS011;10137;49.406;19.484;2023-04-15T01:55:32;1.43;;;1.00;;
19951;SDS011;10137;49.406;19.484;2023-04-15T01:58:00;1.33;;;1.23;;
19951;SDS011;10137;49.406;19.484;2023-04-15T02:00:30;1.30;;;1.20;;
19951;SDS011;10137;49.406;19.484;2023-04-15T02:02:58;1.50;;;1.13;;
19951;SDS011;10137;49.406;19.484;2023-04-15T02:05:26;3.87;;;3.20;;
19951;SDS011;10137;49.406;19.484;2023-04-15T02:07:54;2.87;;;1.10;;
19951;SDS011;10137;49.406;19.484;2023-04-15T02:10:23;4.40;;;4.00;;
19951;SDS011;10137;49.406;19.484;2023-04-15T02:12:52;2.60;;;2.40;;
19951;SDS011;10137;49.406;19.484;2023-04-15T02:15:20;3.43;;;2.80;;
19951;SDS011;10137;49.406;19.484;2023-04-15T02:17:50;2.33;;;2.10;;
19951;SDS011;10137;49.406;19.484;2023-04-15T02:20:20;2.10;;;1.90;;
19951;SDS011;10137;49.406;19.484;2023-04-15T02:22:48;2.13;;;1.10;;
19951;SDS011;10137;49.406;19.484;2023-04-15T02:25:16;1.40;;;1.00;;
19951;SDS011;10137;49.406;19.484;2023-04-15T02:27:45;1.10;;;1.00;;
19951;SDS011;10137;49.406;19.484;2023-04-15T02:30:13;1.70;;;1.60;;
19951;SDS011;10137;49.406;19.484;2023-04-15T02:32:41;1.77;;;0.80;;
19951;SDS011;10137;49.406;19.484;2023-04-15T02:35:11;1.57;;;0.90;;
19951;SDS011;10137;49.406;19.484;2023-04-15T02:37:39;0.80;;;0.80;;
19951;SDS011;10137;49.406;19.484;2023-04-15T02:40:10;1.67;;;0.87;;
19951;SDS011;10137;49.406;19.484;2023-04-15T02:42:39;1.27;;;1.17;;
19951;SDS011;10137;49.406;19.484;2023-04-15T02:45:07;1.30;;;1.03;;
19951;SDS011;10137;49.406;19.484;2023-04-15T02:47:37;2.53;;;1.57;;
19951;SDS011;10137;49.406;19.484;2023-04-15T02:50:07;13.03;;;11.87;;
19951;SDS011;10137;49.406;19.484;2023-04-15T02:52:39;10.30;;;9.50;;
19951;SDS011;10137;49.406;19.484;2023-04-15T02:55:08;11.80;;;10.80;;
19951;SDS011;10137;49.406;19.484;2023-04-15T02:57:36;11.77;;;10.70;;
19951;SDS011;10137;49.406;19.484;2023-04-15T03:00:06;2.87;;;2.30;;
19951;SDS011;10137;49.406;19.484;2023-04-15T03:02:37;1.93;;;1.00;;
19951;SDS011;10137;49.406;19.484;2023-04-15T03:05:09;1.00;;;0.90;;
19951;SDS011;10137;49.406;19.484;2023-04-15T03:07:40;1.77;;;1.07;;
19951;SDS011;10137;49.406;19.484;2023-04-15T03:10:09;5.47;;;2.50;;
19951;SDS011;10137;49.406;19.484;2023-04-15T03:12:37;5.67;;;2.90;;
19951;SDS011;10137;49.406;19.484;2023-04-15T03:15:06;1.90;;;1.30;;
19951;SDS011;10137;49.406;19.484;2023-04-15T03:17:36;1.50;;;0.80;;
19951;SDS011;10137;49.406;19.484;2023-04-15T03:20:05;0.90;;;0.80;;
19951;SDS011;10137;49.406;19.484;2023-04-15T03:22:34;3.37;;;1.00;;
19951;SDS011;10137;49.406;19.484;2023-04-15T03:25:04;1.10;;;0.90;;
19951;SDS011;10137;49.406;19.484;2023-04-15T03:27:33;1.57;;;1.20;;
19951;SDS011;10137;49.406;19.484;2023-04-15T03:30:00;2.43;;;1.00;;
19951;SDS011;10137;49.406;19.484;2023-04-15T03:32:28;1.13;;;0.80;;
19951;SDS011;10137;49.406;19.484;2023-04-15T03:34:58;1.43;;;1.00;;
19951;SDS011;10137;49.406;19.484;2023-04-15T03:37:28;3.57;;;1.50;;
19951;SDS011;10137;49.406;19.484;2023-04-15T03:39:56;2.23;;;1.00;;
19951;SDS011;10137;49.406;19.484;2023-04-15T03:42:25;1.10;;;0.97;;
19951;SDS011;10137;49.406;19.484;2023-04-15T03:44:53;1.00;;;0.80;;
19951;SDS011;10137;49.406;19.484;2023-04-15T03:47:22;3.63;;;1.20;;
19951;SDS011;10137;49.406;19.484;2023-04-15T03:49:50;1.10;;;1.00;;
19951;SDS011;10137;49.406;19.484;2023-04-15T03:52:18;3.50;;;1.10;;
19951;SDS011;10137;49.406;19.484;2023-04-15T03:54:46;1.10;;;1.00;;
19951;SDS011;10137;49.406;19.484;2023-04-15T03:57:15;2.03;;;1.17;;
19951;SDS011;10137;49.406;19.484;2023-04-15T03:59:43;6.03;;;1.30;;
19951;SDS011;10137;49.406;19.484;2023-04-15T04:02:11;1.73;;;1.33;;
19951;SDS011;10137;49.406;19.484;2023-04-15T04:04:40;2.77;;;1.60;;
19951;SDS011;10137;49.406;19.484;2023-04-15T04:07:13;6.87;;;5.50;;
19951;SDS011;10137;49.406;19.484;2023-04-15T04:09:42;10.97;;;5.20;;
19951;SDS011;10137;49.406;19.484;2023-04-15T04:12:10;9.80;;;5.53;;
19951;SDS011;10137;49.406;19.484;2023-04-15T04:14:38;6.97;;;5.63;;
19951;SDS011;10137;49.406;19.484;2023-04-15T04:17:08;9.00;;;4.93;;
19951;SDS011;10137;49.406;19.484;2023-04-15T04:19:36;7.40;;;4.50;;
19951;SDS011;10137;49.406;19.484;2023-04-15T04:22:04;6.10;;;3.33;;
19951;SDS011;10137;49.406;19.484;2023-04-15T04:24:32;6.00;;;3.87;;
19951;SDS011;10137;49.406;19.484;2023-04-15T04:27:00;6.10;;;2.97;;
19951;SDS011;10137;49.406;19.484;2023-04-15T04:29:28;4.73;;;2.60;;
19951;SDS011;10137;49.406;19.484;2023-04-15T04:31:57;8.60;;;4.93;;
19951;SDS011;10137;49.406;19.484;2023-04-15T04:34:27;12.03;;;5.63;;
19951;SDS011;10137;49.406;19.484;2023-04-15T04:36:54;7.70;;;3.67;;
19951;SDS011;10137;49.406;19.484;2023-04-15T04:39:22;7.17;;;3.93;;
19951;SDS011;10137;49.406;19.484;2023-04-15T04:41:50;4.67;;;2.77;;
19951;SDS011;10137;49.406;19.484;2023-04-15T04:44:19;2.97;;;1.90;;
19951;SDS011;10137;49.406;19.484;2023-04-15T04:46:51;4.80;;;1.90;;
19951;SDS011;10137;49.406;19.484;2023-04-15T04:49:19;6.07;;;2.47;;
19951;SDS011;10137;49.406;19.484;2023-04-15T04:51:49;4.53;;;3.20;;
19951;SDS011;10137;49.406;19.484;2023-04-15T04:54:17;7.80;;;4.23;;
19951;SDS011;10137;49.406;19.484;2023-04-15T04:56:46;12.43;;;7.70;;
19951;SDS011;10137;49.406;19.484;2023-04-15T04:59:15;18.43;;;11.57;;
19951;SDS011;10137;49.406;19.484;2023-04-15T05:01:43;17.53;;;10.43;;
19951;SDS011;10137;49.406;19.484;2023-04-15T05:04:10;14.97;;;9.13;;
19951;SDS011;10137;49.406;19.484;2023-04-15T05:06:38;10.47;;;7.00;;
19951;SDS011;10137;49.406;19.484;2023-04-15T05:09:08;9.80;;;6.00;;
19951;SDS011;10137;49.406;19.484;2023-04-15T05:11:36;12.13;;;5.07;;
19951;SDS011;10137;49.406;19.484;2023-04-15T05:14:04;4.80;;;3.00;;
19951;SDS011;10137;49.406;19.484;2023-04-15T05:16:33;3.33;;;2.43;;
19951;SDS011;10137;49.406;19.484;2023-04-15T05:19:01;5.20;;;2.80;;
19951;SDS011;10137;49.406;19.484;2023-04-15T05:21:29;4.03;;;3.63;;
19951;SDS011;10137;49.406;19.484;2023-04-15T05:23:58;5.50;;;2.50;;
19951;SDS011;10137;49.406;19.484;2023-04-15T05:26:27;4.27;;;2.50;;
19951;SDS011;10137;49.406;19.484;2023-04-15T05:28:54;3.50;;;2.53;;
19951;SDS011;10137;49.406;19.484;2023-04-15T05:31:21;3.50;;;2.50;;
19951;SDS011;10137;49.406;19.484;2023-04-15T05:33:49;4.50;;;2.67;;
19951;SDS011;10137;49.406;19.484;2023-04-15T05:36:16;3.70;;;2.27;;
19951;SDS011;10137;49.406;19.484;2023-04-15T05:38:46;4.67;;;2.27;;
19951;SDS011;10137;49.406;19.484;2023-04-15T05:41:16;2.07;;;1.60;;
19951;SDS011;10137;49.406;19.484;2023-04-15T05:43:49;6.60;;;3.47;;
19951;SDS011;10137;49.406;19.484;2023-04-15T05:46:21;3.43;;;2.20;;
19951;SDS011;10137;49.406;19.484;2023-04-15T05:48:49;9.47;;;5.13;;
19951;SDS011;10137;49.406;19.484;2023-04-15T05:51:17;3.97;;;2.97;;
19951;SDS011;10137;49.406;19.484;2023-04-15T05:53:45;4.40;;;3.30;;
19951;SDS011;10137;49.406;19.484;2023-04-15T05:56:13;3.50;;;2.97;;
19951;SDS011;10137;49.406;19.484;2023-04-15T05:58:42;8.17;;;6.00;;
19951;SDS011;10137;49.406;19.484;2023-04-15T06:01:11;5.67;;;4.20;;
19951;SDS011;10137;49.406;19.484;2023-04-15T06:03:39;4.33;;;3.37;;
19951;SDS011;10137;49.406;19.484;2023-04-15T06:06:07;5.90;;;3.30;;
19951;SDS011;10137;49.406;19.484;2023-04-15T06:08:36;7.00;;;2.47;;
19951;SDS011;10137;49.406;19.484;2023-04-15T06:11:03;4.40;;;2.97;;
19951;SDS011;10137;49.406;19.484;2023-04-15T06:13:33;6.17;;;3.00;;
19951;SDS011;10137;49.406;19.484;2023-04-15T06:16:01;4.87;;;2.87;;
19951;SDS011;10137;49.406;19.484;2023-04-15T06:18:31;7.43;;;3.70;;
19951;SDS011;10137;49.406;19.484;2023-04-15T06:20:59;4.80;;;3.00;;
19951;SDS011;10137;49.406;19.484;2023-04-15T06:23:28;7.57;;;3.47;;
19951;SDS011;10137;49.406;19.484;2023-04-15T06:25:56;8.83;;;3.77;;
19951;SDS011;10137;49.406;19.484;2023-04-15T06:28:24;4.83;;;2.07;;
19951;SDS011;10137;49.406;19.484;2023-04-15T06:30:53;3.37;;;1.60;;
19951;SDS011;10137;49.406;19.484;2023-04-15T06:33:21;7.53;;;2.70;;
19951;SDS011;10137;49.406;19.484;2023-04-15T06:35:50;4.37;;;2.37;;
19951;SDS011;10137;49.406;19.484;2023-04-15T06:38:18;5.37;;;2.40;;
19951;SDS011;10137;49.406;19.484;2023-04-15T06:40:46;6.03;;;2.97;;
19951;SDS011;10137;49.406;19.484;2023-04-15T06:43:15;5.50;;;2.53;;
19951;SDS011;10137;49.406;19.484;2023-04-15T06:45:43;6.10;;;2.20;;
19951;SDS011;10137;49.406;19.484;2023-04-15T06:48:12;2.23;;;1.47;;
19951;SDS011;10137;49.406;19.484;2023-04-15T06:50:40;6.37;;;1.73;;
19951;SDS011;10137;49.406;19.484;2023-04-15T06:53:14;2.70;;;1.40;;
19951;SDS011;10137;49.406;19.484;2023-04-15T06:55:44;4.53;;;2.40;;
19951;SDS011;10137;49.406;19.484;2023-04-15T06:58:13;2.33;;;1.70;;
19951;SDS011;10137;49.406;19.484;2023-04-15T07:00:41;2.70;;;1.50;;
19951;SDS011;10137;49.406;19.484;2023-04-15T07:03:10;4.50;;;2.00;;
19951;SDS011;10137;49.406;19.484;2023-04-15T07:05:40;3.20;;;2.10;;
19951;SDS011;10137;49.406;19.484;2023-04-15T07:08:10;4.07;;;2.33;;
19951;SDS011;10137;49.406;19.484;2023-04-15T07:10:38;4.23;;;2.23;;
19951;SDS011;10137;49.406;19.484;2023-04-15T07:13:06;7.70;;;3.53;;
19951;SDS011;10137;49.406;19.484;2023-04-15T07:15:35;8.23;;;3.70;;
19951;SDS011;10137;49.406;19.484;2023-04-15T07:18:03;5.83;;;2.17;;
19951;SDS011;10137;49.406;19.484;2023-04-15T07:20:32;6.10;;;2.53;;
19951;SDS011;10137;49.406;19.484;2023-04-15T07:23:00;11.00;;;3.70;;
19951;SDS011;10137;49.406;19.484;2023-04-15T07:25:30;11.70;;;5.43;;
19951;SDS011;10137;49.406;19.484;2023-04-15T07:27:59;3.67;;;2.03;;
19951;SDS011;10137;49.406;19.484;2023-04-15T07:30:27;3.63;;;1.63;;
19951;SDS011;10137;49.406;19.484;2023-04-15T07:32:57;1.70;;;1.60;;
19951;SDS011;10137;49.406;19.484;2023-04-15T07:35:25;2.43;;;2.00;;
19951;SDS011;10137;49.406;19.484;2023-04-15T07:37:54;6.43;;;2.20;;
19951;SDS011;10137;49.406;19.484;2023-04-15T07:40:21;2.30;;;2.10;;
19951;SDS011;10137;49.406;19.484;2023-04-15T07:42:53;4.30;;;2.77;;
19951;SDS011;10137;49.406;19.484;2023-04-15T07:45:23;4.97;;;2.70;;
19951;SDS011;10137;49.406;19.484;2023-04-15T07:47:52;6.10;;;3.10;;
19951;SDS011;10137;49.406;19.484;2023-04-15T07:50:21;2.70;;;2.43;;
19951;SDS011;10137;49.406;19.484;2023-04-15T07:52:50;2.23;;;2.03;;
19951;SDS011;10137;49.406;19.484;2023-04-15T07:55:18;4.90;;;2.90;;
19951;SDS011;10137;49.406;19.484;2023-04-15T07:57:48;4.87;;;2.77;;
19951;SDS011;10137;49.406;19.484;2023-04-15T08:00:18;4.13;;;2.47;;
19951;SDS011;10137;49.406;19.484;2023-04-15T08:02:47;10.00;;;2.97;;
19951;SDS011;10137;49.406;19.484;2023-04-15T08:05:15;5.30;;;3.10;;
19951;SDS011;10137;49.406;19.484;2023-04-15T08:07:43;4.93;;;2.87;;
19951;SDS011;10137;49.406;19.484;2023-04-15T08:10:12;5.67;;;3.73;;
19951;SDS011;10137;49.406;19.484;2023-04-15T08:12:41;20.43;;;8.13;;
19951;SDS011;10137;49.406;19.484;2023-04-15T08:15:09;12.33;;;6.40;;
19951;SDS011;10137;49.406;19.484;2023-04-15T08:17:39;5.93;;;2.53;;
19951;SDS011;10137;49.406;19.484;2023-04-15T08:20:09;2.90;;;2.03;;
19951;SDS011;10137;49.406;19.484;2023-04-15T08:22:38;5.27;;;2.90;;
19951;SDS011;10137;49.406;19.484;2023-04-15T08:25:07;14.83;;;3.23;;
19951;SDS011;10137;49.406;19.484;2023-04-15T08:27:36;6.10;;;3.63;;
19951;SDS011;10137;49.406;19.484;2023-04-15T08:30:04;6.77;;;3.03;;
19951;SDS011;10137;49.406;19.484;2023-04-15T08:32:34;5.50;;;3.27;;
19951;SDS011;10137;49.406;19.484;2023-04-15T08:35:04;5.17;;;2.63;;
19951;SDS011;10137;49.406;19.484;2023-04-15T08:37:33;5.77;;;4.00;;
19951;SDS011;10137;49.406;19.484;2023-04-15T08:40:01;6.40;;;2.20;;
19951;SDS011;10137;49.406;19.484;2023-04-15T08:42:29;3.10;;;2.33;;
19951;SDS011;10137;49.406;19.484;2023-04-15T08:45:06;4.33;;;3.50;;
19951;SDS011;10137;49.406;19.484;2023-04-15T08:47:36;4.77;;;2.70;;
19951;SDS011;10137;49.406;19.484;2023-04-15T08:50:08;3.40;;;2.90;;
19951;SDS011;10137;49.406;19.484;2023-04-15T08:52:37;2.57;;;1.80;;
19951;SDS011;10137;49.406;19.484;2023-04-15T08:55:06;4.60;;;2.80;;
19951;SDS011;10137;49.406;19.484;2023-04-15T08:57:37;2.40;;;2.13;;
19951;SDS011;10137;49.406;19.484;2023-04-15T09:00:06;6.13;;;1.90;;
19951;SDS011;10137;49.406;19.484;2023-04-15T09:02:36;4.33;;;1.97;;
19951;SDS011;10137;49.406;19.484;2023-04-15T09:05:05;6.40;;;1.83;;
19951;SDS011;10137;49.406;19.484;2023-04-15T09:07:35;2.93;;;1.80;;
19951;SDS011;10137;49.406;19.484;2023-04-15T09:10:03;2.37;;;1.83;;
19951;SDS011;10137;49.406;19.484;2023-04-15T09:12:33;2.47;;;1.70;;
19951;SDS011;10137;49.406;19.484;2023-04-15T09:15:03;1.60;;;1.50;;
19951;SDS011;10137;49.406;19.484;2023-04-15T09:17:32;1.40;;;1.30;;
19951;SDS011;10137;49.406;19.484;2023-04-15T09:20:10;2.97;;;1.73;;
19951;SDS011;10137;49.406;19.484;2023-04-15T09:22:41;1.87;;;1.20;;
19951;SDS011;10137;49.406;19.484;2023-04-15T09:25:27;2.53;;;1.30;;
19951;SDS011;10137;49.406;19.484;2023-04-15T09:27:58;2.23;;;1.30;;
19951;SDS011;10137;49.406;19.484;2023-04-15T09:30:28;3.33;;;1.30;;
19951;SDS011;10137;49.406;19.484;2023-04-15T09:32:57;1.97;;;1.50;;
19951;SDS011;10137;49.406;19.484;2023-04-15T09:35:27;2.77;;;1.60;;
19951;SDS011;10137;49.406;19.484;2023-04-15T09:38:02;6.50;;;1.50;;
19951;SDS011;10137;49.406;19.484;2023-04-15T09:40:30;2.67;;;1.37;;
19951;SDS011;10137;49.406;19.484;2023-04-15T09:43:00;7.60;;;3.40;;
19951;SDS011;10137;49.406;19.484;2023-04-15T09:45:29;5.13;;;2.80;;
19951;SDS011;10137;49.406;19.484;2023-04-15T09:47:58;2.90;;;1.70;;
19951;SDS011;10137;49.406;19.484;2023-04-15T09:50:40;2.03;;;1.83;;
19951;SDS011;10137;49.406;19.484;2023-04-15T09:53:10;4.67;;;1.90;;
19951;SDS011;10137;49.406;19.484;2023-04-15T09:55:38;2.77;;;1.50;;
19951;SDS011;10137;49.406;19.484;2023-04-15T09:58:07;1.40;;;1.27;;
19951;SDS011;10137;49.406;19.484;2023-04-15T10:00:37;2.27;;;1.67;;
19951;SDS011;10137;49.406;19.484;2023-04-15T10:03:05;3.83;;;1.70;;
19951;SDS011;10137;49.406;19.484;2023-04-15T10:05:33;3.17;;;1.30;;
19951;SDS011;10137;49.406;19.484;2023-04-15T10:08:03;1.60;;;1.40;;
19951;SDS011;10137;49.406;19.484;2023-04-15T10:10:33;2.57;;;1.60;;
19951;SDS011;10137;49.406;19.484;2023-04-15T10:13:01;3.07;;;1.60;;
19951;SDS011;10137;49.406;19.484;2023-04-15T10:15:30;1.93;;;1.00;;
19951;SDS011;10137;49.406;19.484;2023-04-15T10:17:59;1.43;;;1.33;;
19951;SDS011;10137;49.406;19.484;2023-04-15T10:20:31;2.03;;;1.33;;
19951;SDS011;10137;49.406;19.484;2023-04-15T10:22:59;1.47;;;1.37;;
19951;SDS011;10137;49.406;19.484;2023-04-15T10:25:28;1.73;;;1.30;;
19951;SDS011;10137;49.406;19.484;2023-04-15T10:27:58;1.13;;;0.97;;
19951;SDS011;10137;49.406;19.484;2023-04-15T10:30:27;1.40;;;1.30;;
19951;SDS011;10137;49.406;19.484;2023-04-15T10:32:56;4.10;;;1.40;;
19951;SDS011;10137;49.406;19.484;2023-04-15T10:35:25;2.40;;;1.43;;
19951;SDS011;10137;49.406;19.484;2023-04-15T10:37:56;2.87;;;1.50;;
19951;SDS011;10137;49.406;19.484;2023-04-15T10:40:25;8.50;;;1.77;;
19951;SDS011;10137;49.406;19.484;2023-04-15T10:42:57;3.53;;;1.20;;
19951;SDS011;10137;49.406;19.484;2023-04-15T10:45:31;1.47;;;1.20;;
19951;SDS011;10137;49.406;19.484;2023-04-15T10:48:00;1.20;;;1.10;;
19951;SDS011;10137;49.406;19.484;2023-04-15T10:50:30;1.40;;;1.17;;
19951;SDS011;10137;49.406;19.484;2023-04-15T10:53:01;1.93;;;1.53;;
19951;SDS011;10137;49.406;19.484;2023-04-15T10:55:30;1.70;;;1.47;;
19951;SDS011;10137;49.406;19.484;2023-04-15T10:58:01;1.90;;;1.70;;
19951;SDS011;10137;49.406;19.484;2023-04-15T11:00:30;1.63;;;1.53;;
19951;SDS011;10137;49.406;19.484;2023-04-15T11:03:04;3.93;;;2.23;;
19951;SDS011;10137;49.406;19.484;2023-04-15T11:08:19;2.97;;;1.60;;
19951;SDS011;10137;49.406;19.484;2023-04-15T11:11:07;2.07;;;1.27;;
19951;SDS011;10137;49.406;19.484;2023-04-15T11:13:46;7.40;;;2.67;;
19951;SDS011;10137;49.406;19.484;2023-04-15T11:16:13;2.40;;;1.30;;
19951;SDS011;10137;49.406;19.484;2023-04-15T11:18:52;2.77;;;1.40;;
19951;SDS011;10137;49.406;19.484;2023-04-15T11:21:23;1.60;;;1.40;;
19951;SDS011;10137;49.406;19.484;2023-04-15T11:23:53;2.10;;;1.80;;
19951;SDS011;10137;49.406;19.484;2023-04-15T11:26:24;2.27;;;1.70;;
19951;SDS011;10137;49.406;19.484;2023-04-15T11:28:54;4.40;;;1.97;;
19951;SDS011;10137;49.406;19.484;2023-04-15T11:31:22;3.47;;;1.50;;
19951;SDS011;10137;49.406;19.484;2023-04-15T11:33:55;3.50;;;1.30;;
19951;SDS011;10137;49.406;19.484;2023-04-15T11:36:24;1.30;;;1.20;;
19951;SDS011;10137;49.406;19.484;2023-04-15T11:38:54;1.80;;;1.70;;
19951;SDS011;10137;49.406;19.484;2023-04-15T11:41:26;2.97;;;2.00;;
19951;SDS011;10137;49.406;19.484;2023-04-15T11:43:55;1.47;;;1.37;;
19951;SDS011;10137;49.406;19.484;2023-04-15T11:46:27;2.27;;;1.80;;
19951;SDS011;10137;49.406;19.484;2023-04-15T11:48:57;4.00;;;1.83;;
19951;SDS011;10137;49.406;19.484;2023-04-15T11:51:25;1.70;;;1.60;;
19951;SDS011;10137;49.406;19.484;2023-04-15T11:53:58;5.10;;;2.20;;
19951;SDS011;10137;49.406;19.484;2023-04-15T11:56:26;1.80;;;1.50;;
19951;SDS011;10137;49.406;19.484;2023-04-15T11:58:56;2.77;;;1.40;;
19951;SDS011;10137;49.406;19.484;2023-04-15T12:01:34;1.73;;;1.37;;
19951;SDS011;10137;49.406;19.484;2023-04-15T12:04:09;1.30;;;1.20;;
19951;SDS011;10137;49.406;19.484;2023-04-15T12:06:38;1.40;;;1.30;;
19951;SDS011;10137;49.406;19.484;2023-04-15T12:09:10;2.10;;;1.20;;
19951;SDS011;10137;49.406;19.484;2023-04-15T12:11:40;16.77;;;2.90;;
19951;SDS011;10137;49.406;19.484;2023-04-15T12:14:16;4.53;;;1.27;;
19951;SDS011;10137;49.406;19.484;2023-04-15T12:16:49;1.47;;;1.20;;
19951;SDS011;10137;49.406;19.484;2023-04-15T12:19:22;3.57;;;1.63;;
19951;SDS011;10137;49.406;19.484;2023-04-15T12:21:52;7.10;;;2.03;;
19951;SDS011;10137;49.406;19.484;2023-04-15T12:24:23;4.10;;;1.50;;
19951;SDS011;10137;49.406;19.484;2023-04-15T12:26:53;2.90;;;1.40;;
19951;SDS011;10137;49.406;19.484;2023-04-15T12:29:25;1.90;;;1.50;;
19951;SDS011;10137;49.406;19.484;2023-04-15T12:31:55;1.73;;;1.40;;
19951;SDS011;10137;49.406;19.484;2023-04-15T12:34:27;1.27;;;1.13;;
19951;SDS011;10137;49.406;19.484;2023-04-15T12:36:57;2.00;;;1.50;;
19951;SDS011;10137;49.406;19.484;2023-04-15T12:39:27;2.20;;;1.70;;
19951;SDS011;10137;49.406;19.484;2023-04-15T12:41:58;7.80;;;1.80;;
19951;SDS011;10137;49.406;19.484;2023-04-15T12:44:28;3.47;;;1.57;;
19951;SDS011;10137;49.406;19.484;2023-04-15T12:46:56;2.77;;;1.40;;
19951;SDS011;10137;49.406;19.484;2023-04-15T12:49:25;2.47;;;1.30;;
19951;SDS011;10137;49.406;19.484;2023-04-15T12:51:54;3.73;;;1.60;;
19951;SDS011;10137;49.406;19.484;2023-04-15T12:54:23;4.03;;;1.70;;
19951;SDS011;10137;49.406;19.484;2023-04-15T12:56:52;2.10;;;1.80;;
19951;SDS011;10137;49.406;19.484;2023-04-15T12:59:20;6.27;;;3.47;;
19951;SDS011;10137;49.406;19.484;2023-04-15T13:01:51;5.30;;;3.20;;
19951;SDS011;10137;49.406;19.484;2023-04-15T13:04:19;5.73;;;2.00;;
19951;SDS011;10137;49.406;19.484;2023-04-15T13:06:48;4.43;;;1.80;;
19951;SDS011;10137;49.406;19.484;2023-04-15T13:09:16;3.47;;;2.23;;
19951;SDS011;10137;49.406;19.484;2023-04-15T13:11:44;3.93;;;2.07;;
19951;SDS011;10137;49.406;19.484;2023-04-15T13:14:12;3.93;;;2.63;;
19951;SDS011;10137;49.406;19.484;2023-04-15T13:16:41;4.20;;;2.90;;
19951;SDS011;10137;49.406;19.484;2023-04-15T13:19:10;4.37;;;2.67;;
19951;SDS011;10137;49.406;19.484;2023-04-15T13:21:38;4.63;;;2.73;;
19951;SDS011;10137;49.406;19.484;2023-04-15T13:24:06;3.63;;;2.50;;
19951;SDS011;10137;49.406;19.484;2023-04-15T13:26:35;3.20;;;2.70;;
19951;SDS011;10137;49.406;19.484;2023-04-15T13:29:04;2.07;;;1.60;;
19951;SDS011;10137;49.406;19.484;2023-04-15T13:31:32;1.70;;;1.60;;
19951;SDS011;10137;49.406;19.484;2023-04-15T13:34:01;2.07;;;1.80;;
19951;SDS011;10137;49.406;19.484;2023-04-15T13:36:30;2.47;;;1.70;;
19951;SDS011;10137;49.406;19.484;2023-04-15T13:38:58;1.40;;;1.30;;
19951;SDS011;10137;49.406;19.484;2023-04-15T13:41:26;1.00;;;1.00;;
19951;SDS011;10137;49.406;19.484;2023-04-15T13:43:55;1.37;;;1.10;;
19951;SDS011;10137;49.406;19.484;2023-04-15T13:46:23;1.93;;;1.27;;
19951;SDS011;10137;49.406;19.484;2023-04-15T13:48:52;1.47;;;1.10;;
19951;SDS011;10137;49.406;19.484;2023-04-15T13:51:20;1.53;;;1.30;;
19951;SDS011;10137;49.406;19.484;2023-04-15T13:53:50;1.40;;;1.30;;
19951;SDS011;10137;49.406;19.484;2023-04-15T13:56:17;2.03;;;1.37;;
19951;SDS011;10137;49.406;19.484;2023-04-15T13:58:46;3.30;;;1.57;;
19951;SDS011;10137;49.406;19.484;2023-04-15T14:01:15;1.77;;;1.40;;
19951;SDS011;10137;49.406;19.484;2023-04-15T14:03:43;5.77;;;3.97;;
19951;SDS011;10137;49.406;19.484;2023-04-15T14:06:11;8.20;;;4.80;;
19951;SDS011;10137;49.406;19.484;2023-04-15T14:08:39;5.13;;;3.50;;
19951;SDS011;10137;49.406;19.484;2023-04-15T14:11:09;9.90;;;5.53;;
19951;SDS011;10137;49.406;19.484;2023-04-15T14:13:37;11.87;;;7.23;;
19951;SDS011;10137;49.406;19.484;2023-04-15T14:16:05;21.70;;;12.37;;
19951;SDS011;10137;49.406;19.484;2023-04-15T14:18:33;10.77;;;5.90;;
19951;SDS011;10137;49.406;19.484;2023-04-15T14:21:04;10.90;;;6.50;;
19951;SDS011;10137;49.406;19.484;2023-04-15T14:23:34;13.03;;;7.70;;
19951;SDS011;10137;49.406;19.484;2023-04-15T14:26:03;11.00;;;7.03;;
19951;SDS011;10137;49.406;19.484;2023-04-15T14:28:33;8.33;;;4.77;;
19951;SDS011;10137;49.406;19.484;2023-04-15T14:31:03;6.67;;;4.30;;
19951;SDS011;10137;49.406;19.484;2023-04-15T14:33:31;6.33;;;4.07;;
19951;SDS011;10137;49.406;19.484;2023-04-15T14:35:59;3.93;;;3.20;;
19951;SDS011;10137;49.406;19.484;2023-04-15T14:38:27;3.50;;;2.63;;
19951;SDS011;10137;49.406;19.484;2023-04-15T14:40:56;4.10;;;3.03;;
19951;SDS011;10137;49.406;19.484;2023-04-15T14:43:25;3.43;;;2.90;;
19951;SDS011;10137;49.406;19.484;2023-04-15T14:45:55;4.30;;;3.10;;
19951;SDS011;10137;49.406;19.484;2023-04-15T14:48:23;4.30;;;3.30;;